Time;durP1;ratioP1;P1;durP2;ratioP2;P2;SDS_P1;SDS_P2;PMS_P1;PMS_P2;Temp;Humidity;BMP_temperature;BMP_pressure;BME280_temperature;BME280_humidity;BME280_pressure;Samples;Min_cycle;Max_cycle;Signal;HPM_P1;HPM_P2
2021/05/21 00:02:08;;;;;;;2.87;2.00;;;10.30;99.90;;;;;;5028718;28;20617;-85
2021/05/21 00:04:35;;;;;;;2.03;1.83;;;10.20;99.90;;;;;;5045954;28;20634;-87
2021/05/21 00:07:01;;;;;;;3.70;1.80;;;10.20;99.90;;;;;;5050028;27;20618;-85
2021/05/21 00:09:28;;;;;;;3.87;2.20;;;10.10;99.90;;;;;;5029675;27;20680;-87
2021/05/21 00:11:54;;;;;;;2.63;2.20;;;10.10;99.90;;;;;;5039795;27;20989;-86
2021/05/21 00:14:24;;;;;;;2.23;2.03;;;10.10;99.90;;;;;;5049097;27;20669;-86
2021/05/21 00:16:50;;;;;;;2.13;1.97;;;10.10;99.90;;;;;;5047786;27;20633;-86
2021/05/21 00:19:17;;;;;;;3.77;2.10;;;10.20;99.90;;;;;;5032661;27;20671;-87
2021/05/21 00:21:43;;;;;;;2.50;2.30;;;10.10;99.90;;;;;;5040745;27;20631;-87
2021/05/21 00:24:10;;;;;;;2.73;2.53;;;10.10;99.90;;;;;;5027475;27;20654;-86
2021/05/21 00:26:37;;;;;;;2.17;1.90;;;10.10;99.90;;;;;;5038359;27;20622;-87
2021/05/21 00:29:03;;;;;;;2.40;2.20;;;10.10;99.90;;;;;;5026073;27;21098;-86
2021/05/21 00:31:30;;;;;;;2.90;2.40;;;10.20;99.90;;;;;;5048724;27;20663;-86
2021/05/21 00:33:56;;;;;;;1.93;1.80;;;10.10;99.90;;;;;;5036801;27;20670;-86
2021/05/21 00:36:23;;;;;;;2.37;2.13;;;10.10;99.90;;;;;;5028711;27;20688;-86
2021/05/21 00:38:49;;;;;;;2.43;2.23;;;10.00;99.90;;;;;;5031196;27;20631;-86
2021/05/21 00:41:16;;;;;;;4.40;2.10;;;10.00;99.90;;;;;;5041567;27;20658;-87
2021/05/21 00:43:43;;;;;;;3.73;2.17;;;10.00;99.90;;;;;;5039259;27;20627;-87
2021/05/21 00:46:09;;;;;;;2.33;2.10;;;10.10;99.90;;;;;;5036912;27;20626;-87
2021/05/21 00:48:36;;;;;;;5.33;1.77;;;10.10;99.90;;;;;;5035862;27;20721;-88
2021/05/21 00:51:03;;;;;;;2.67;2.47;;;10.10;99.90;;;;;;5043703;27;20671;-87
2021/05/21 00:53:31;;;;;;;2.93;2.73;;;10.00;99.90;;;;;;5047440;27;20665;-87
2021/05/21 00:55:58;;;;;;;3.10;2.17;;;10.00;99.90;;;;;;5037520;27;21027;-87
2021/05/21 00:58:25;;;;;;;2.27;2.17;;;10.00;99.90;;;;;;5040208;27;20635;-87
2021/05/21 01:00:52;;;;;;;2.87;2.20;;;10.00;99.90;;;;;;5044251;27;22110;-87
2021/05/21 01:03:20;;;;;;;2.17;2.07;;;10.00;99.90;;;;;;5059329;27;20727;-87
2021/05/21 01:05:47;;;;;;;2.60;2.40;;;10.00;99.90;;;;;;5035034;27;20630;-87
2021/05/21 01:08:14;;;;;;;2.77;2.23;;;10.00;99.90;;;;;;5029463;27;20997;-87
2021/05/21 01:10:41;;;;;;;3.83;2.80;;;10.10;99.90;;;;;;5022946;27;20651;-87
2021/05/21 01:13:08;;;;;;;2.53;2.27;;;10.10;99.90;;;;;;5029767;27;21185;-87
2021/05/21 01:15:36;;;;;;;2.33;2.20;;;10.10;99.90;;;;;;5060870;27;21188;-88
2021/05/21 01:18:02;;;;;;;2.17;1.97;;;10.00;99.90;;;;;;5037032;27;20632;-89
2021/05/21 01:20:30;;;;;;;2.13;1.93;;;10.00;99.90;;;;;;5044694;27;20673;-88
2021/05/21 01:22:57;;;;;;;3.70;2.33;;;10.00;99.90;;;;;;5029903;27;20623;-87
2021/05/21 01:25:23;;;;;;;4.20;2.23;;;10.00;99.90;;;;;;5028077;28;20630;-88
2021/05/21 01:27:51;;;;;;;3.23;2.70;;;10.10;99.90;;;;;;5037345;27;20638;-87
2021/05/21 01:30:18;;;;;;;5.17;2.00;;;10.00;99.90;;;;;;5033809;27;20704;-87
2021/05/21 01:32:47;;;;;;;2.83;2.20;;;10.00;99.90;;;;;;5045364;27;20708;-87
2021/05/21 01:35:16;;;;;;;2.20;2.00;;;10.00;99.90;;;;;;5044009;27;20637;-87
2021/05/21 01:37:44;;;;;;;4.17;2.80;;;10.00;99.90;;;;;;5025705;27;20989;-87
2021/05/21 01:40:12;;;;;;;2.40;2.20;;;10.10;99.90;;;;;;5052923;27;21233;-87
2021/05/21 01:42:39;;;;;;;2.97;2.67;;;10.10;99.90;;;;;;5038955;27;21212;-87
2021/05/21 01:45:07;;;;;;;2.77;2.57;;;10.00;99.90;;;;;;5045076;27;20635;-87
2021/05/21 01:47:33;;;;;;;2.60;2.37;;;10.00;99.90;;;;;;5032784;27;20630;-88
2021/05/21 01:50:01;;;;;;;2.73;1.77;;;10.00;99.90;;;;;;5056746;27;20715;-88
2021/05/21 01:52:27;;;;;;;3.50;2.03;;;10.00;99.90;;;;;;5046256;27;20680;-88
2021/05/21 01:54:54;;;;;;;2.53;2.33;;;10.00;99.90;;;;;;5049594;27;20626;-88
2021/05/21 01:57:22;;;;;;;2.93;2.10;;;10.00;99.90;;;;;;5054657;27;20622;-88
2021/05/21 01:59:48;;;;;;;3.93;1.80;;;10.00;99.90;;;;;;5047943;27;20647;-88
2021/05/21 02:02:15;;;;;;;1.97;1.80;;;10.00;99.90;;;;;;5045771;27;20683;-88
2021/05/21 02:04:42;;;;;;;2.37;1.60;;;9.90;99.90;;;;;;5040410;27;20626;-89
2021/05/21 02:07:13;;;;;;;4.20;2.23;;;10.00;99.90;;;;;;5053837;27;20642;-87
2021/05/21 02:09:47;;;;;;;2.23;2.13;;;10.00;99.90;;;;;;5066897;27;20654;-87
2021/05/21 02:12:15;;;;;;;1.87;1.73;;;10.00;99.90;;;;;;5036181;27;20622;-87
2021/05/21 02:14:41;;;;;;;2.07;1.80;;;9.90;99.90;;;;;;5045023;27;20663;-86
2021/05/21 02:17:07;;;;;;;3.10;1.83;;;9.90;99.90;;;;;;5049826;27;20631;-86
2021/05/21 02:19:34;;;;;;;3.07;1.63;;;9.90;99.90;;;;;;5041740;28;20651;-86
2021/05/21 02:22:00;;;;;;;2.50;1.80;;;9.80;99.90;;;;;;5041712;27;20630;-86
2021/05/21 02:24:26;;;;;;;3.03;2.30;;;9.80;99.90;;;;;;5065942;27;20683;-86
2021/05/21 02:26:53;;;;;;;5.30;1.87;;;9.80;99.90;;;;;;5036610;27;20638;-86
2021/05/21 02:29:20;;;;;;;2.10;1.60;;;9.80;99.90;;;;;;5038698;28;20637;-86
2021/05/21 02:31:46;;;;;;;2.60;1.93;;;9.70;99.90;;;;;;5068408;27;20732;-87
2021/05/21 02:34:13;;;;;;;2.40;1.97;;;9.70;99.90;;;;;;5050983;27;20666;-86
2021/05/21 02:36:39;;;;;;;2.43;2.20;;;9.60;99.90;;;;;;5056107;27;20614;-87
2021/05/21 02:39:06;;;;;;;2.53;2.30;;;9.80;99.90;;;;;;5040475;27;20630;-87
2021/05/21 02:41:32;;;;;;;1.90;1.80;;;9.70;99.90;;;;;;5034944;27;20725;-88
2021/05/21 02:43:58;;;;;;;2.73;2.00;;;9.70;99.90;;;;;;5042661;27;20694;-87
2021/05/21 02:46:26;;;;;;;2.80;2.20;;;9.70;99.90;;;;;;5030667;27;20667;-87
2021/05/21 02:48:52;;;;;;;2.43;2.23;;;9.60;99.90;;;;;;5031210;27;21261;-87
2021/05/21 02:51:19;;;;;;;2.77;2.17;;;9.70;99.90;;;;;;5046884;27;20642;-87
2021/05/21 02:53:45;;;;;;;2.53;2.10;;;9.70;99.90;;;;;;5031453;27;20670;-87
2021/05/21 02:56:11;;;;;;;2.60;2.30;;;9.60;99.90;;;;;;5031611;28;20626;-88
2021/05/21 02:58:38;;;;;;;5.13;2.10;;;9.60;99.90;;;;;;5049410;27;20696;-87
2021/05/21 03:01:04;;;;;;;3.23;3.03;;;9.60;99.90;;;;;;5040233;27;20642;-87
2021/05/21 03:03:32;;;;;;;2.50;2.00;;;9.50;99.90;;;;;;5042649;27;20627;-86
2021/05/21 03:05:58;;;;;;;2.23;1.50;;;9.60;99.90;;;;;;5055453;27;20623;-86
2021/05/21 03:08:24;;;;;;;2.60;1.57;;;9.50;99.90;;;;;;5031127;27;20622;-86
2021/05/21 03:10:54;;;;;;;1.60;1.50;;;9.50;99.90;;;;;;5061590;27;20654;-86
2021/05/21 03:13:20;;;;;;;2.23;2.00;;;9.50;99.90;;;;;;5032884;27;20695;-86
2021/05/21 03:15:47;;;;;;;4.37;2.00;;;9.50;99.90;;;;;;5020591;28;20722;-86
2021/05/21 03:18:14;;;;;;;2.93;1.80;;;9.60;99.90;;;;;;5032360;27;20663;-87
2021/05/21 03:20:42;;;;;;;2.10;1.70;;;9.50;99.90;;;;;;5037638;27;20658;-86
2021/05/21 03:23:08;;;;;;;1.87;1.33;;;9.50;99.90;;;;;;5037016;27;20981;-86
2021/05/21 03:25:35;;;;;;;1.63;1.50;;;9.50;99.90;;;;;;5022476;27;20646;-86
2021/05/21 03:28:01;;;;;;;2.00;1.63;;;9.50;99.90;;;;;;5054454;27;20623;-86
2021/05/21 03:30:29;;;;;;;3.60;1.97;;;9.40;99.90;;;;;;5059262;27;20655;-86
2021/05/21 03:32:55;;;;;;;2.03;1.80;;;9.40;99.90;;;;;;5020417;28;20663;-85
2021/05/21 03:35:21;;;;;;;3.40;2.20;;;9.40;99.90;;;;;;5036195;27;20619;-86
2021/05/21 03:37:48;;;;;;;3.20;1.57;;;9.50;99.90;;;;;;5042360;27;20654;-85
2021/05/21 03:40:15;;;;;;;2.20;1.70;;;9.50;99.90;;;;;;5045935;27;21337;-85
2021/05/21 03:42:41;;;;;;;2.13;1.43;;;9.40;99.90;;;;;;5039668;27;20640;-85
2021/05/21 03:45:08;;;;;;;2.37;2.17;;;9.30;99.90;;;;;;5037772;27;20649;-84
2021/05/21 03:47:35;;;;;;;1.70;1.60;;;9.20;99.90;;;;;;5024554;27;20631;-83
2021/05/21 03:50:02;;;;;;;2.60;2.20;;;9.30;99.90;;;;;;5049921;27;20662;-85
2021/05/21 03:52:28;;;;;;;2.20;2.00;;;9.30;99.90;;;;;;5020303;28;21027;-84
2021/05/21 03:54:55;;;;;;;3.10;2.60;;;9.40;99.90;;;;;;5040808;27;21153;-84
2021/05/21 03:57:22;;;;;;;3.70;2.40;;;9.30;99.90;;;;;;5025207;28;20642;-85
2021/05/21 03:59:49;;;;;;;2.40;2.10;;;9.20;99.90;;;;;;5047239;28;20662;-84
2021/05/21 04:02:16;;;;;;;2.70;2.50;;;9.20;99.90;;;;;;5047349;28;20630;-85
2021/05/21 04:04:43;;;;;;;3.47;2.30;;;9.20;99.90;;;;;;5028459;28;20715;-85
2021/05/21 04:07:09;;;;;;;3.30;2.37;;;9.30;99.90;;;;;;5027731;28;20631;-86
2021/05/21 04:09:35;;;;;;;2.43;2.30;;;9.30;99.90;;;;;;5040958;28;20660;-85
2021/05/21 04:12:03;;;;;;;2.60;2.30;;;9.30;99.90;;;;;;5029810;28;20730;-84
2021/05/21 04:14:30;;;;;;;2.20;2.00;;;9.30;99.90;;;;;;5029602;28;20668;-85
2021/05/21 04:16:56;;;;;;;4.03;3.10;;;9.40;99.90;;;;;;5036029;27;20642;-85
2021/05/21 04:19:23;;;;;;;4.23;1.93;;;9.40;99.90;;;;;;5029261;28;20655;-85
2021/05/21 04:21:50;;;;;;;7.80;2.47;;;9.40;99.90;;;;;;5024507;28;20684;-85
2021/05/21 04:24:16;;;;;;;2.47;2.10;;;9.40;99.90;;;;;;5036106;28;20635;-84
2021/05/21 04:26:43;;;;;;;2.60;2.40;;;9.40;99.90;;;;;;5035117;27;20649;-86
2021/05/21 04:29:11;;;;;;;3.10;2.07;;;9.40;99.90;;;;;;5040741;28;20684;-84
2021/05/21 04:31:37;;;;;;;2.20;2.00;;;9.50;99.90;;;;;;5024299;28;20672;-84
2021/05/21 04:34:03;;;;;;;5.77;3.63;;;9.50;99.90;;;;;;5055670;28;20665;-84
2021/05/21 04:36:30;;;;;;;6.80;4.33;;;9.50;99.90;;;;;;5021761;28;21191;-84
2021/05/21 04:38:56;;;;;;;8.93;5.40;;;9.60;99.90;;;;;;5034141;28;21239;-84
2021/05/21 04:41:23;;;;;;;7.13;3.50;;;9.70;99.90;;;;;;5024448;28;20674;-84
2021/05/21 04:43:50;;;;;;;5.27;4.60;;;9.80;99.90;;;;;;5044613;28;20669;-84
2021/05/21 04:46:18;;;;;;;4.40;4.00;;;9.80;99.90;;;;;;5033268;28;20662;-85
2021/05/21 04:48:44;;;;;;;9.00;8.30;;;9.90;99.90;;;;;;5051241;28;21232;-84
2021/05/21 04:51:11;;;;;;;7.13;6.50;;;10.00;99.90;;;;;;5035384;28;20633;-84
2021/05/21 04:53:40;;;;;;;8.17;7.40;;;10.10;99.90;;;;;;5033808;27;20658;-85
2021/05/21 04:56:07;;;;;;;14.50;13.30;;;10.20;99.90;;;;;;5045146;27;20993;-85
2021/05/21 04:58:34;;;;;;;13.87;12.87;;;10.30;99.90;;;;;;5026634;27;20668;-85
2021/05/21 05:01:00;;;;;;;14.90;13.90;;;10.30;99.90;;;;;;5030505;27;20726;-85
2021/05/21 05:03:29;;;;;;;17.37;16.13;;;10.40;99.90;;;;;;5036269;27;20624;-85
2021/05/21 05:05:56;;;;;;;17.93;16.30;;;10.50;99.90;;;;;;5034894;27;20618;-85
2021/05/21 05:08:23;;;;;;;17.27;16.07;;;10.50;99.90;;;;;;5056465;27;20622;-84
2021/05/21 05:10:50;;;;;;;17.07;15.57;;;10.60;99.90;;;;;;5026573;27;21244;-85
2021/05/21 05:13:16;;;;;;;17.57;16.27;;;10.70;99.90;;;;;;5026686;27;20666;-84
2021/05/21 05:15:43;;;;;;;15.70;14.47;;;10.70;99.90;;;;;;5056829;27;20654;-84
2021/05/21 05:18:09;;;;;;;17.90;16.20;;;10.80;99.90;;;;;;5047896;27;20650;-85
2021/05/21 05:20:37;;;;;;;17.10;15.80;;;10.80;99.90;;;;;;5031779;27;21209;-84
2021/05/21 05:23:04;;;;;;;17.30;15.80;;;10.90;99.90;;;;;;5040502;27;20607;-85
2021/05/21 05:25:30;;;;;;;17.03;15.63;;;11.00;99.90;;;;;;5035507;27;20619;-85
2021/05/21 05:27:57;;;;;;;17.60;16.37;;;11.00;99.90;;;;;;5023387;27;20673;-85
2021/05/21 05:30:24;;;;;;;17.60;16.23;;;11.20;99.90;;;;;;5046855;27;21185;-85
2021/05/21 05:32:51;;;;;;;18.13;16.60;;;11.20;99.90;;;;;;5030624;27;20683;-85
2021/05/21 05:35:18;;;;;;;18.53;17.03;;;11.30;99.90;;;;;;5030565;27;20601;-85
2021/05/21 05:37:46;;;;;;;18.27;16.70;;;11.40;99.90;;;;;;5028145;28;21235;-85
2021/05/21 05:40:12;;;;;;;23.70;21.60;;;11.50;99.90;;;;;;5050399;27;20633;-85
2021/05/21 05:42:39;;;;;;;19.03;17.53;;;11.60;99.90;;;;;;5039705;27;20696;-85
2021/05/21 05:45:06;;;;;;;19.80;18.30;;;11.70;99.90;;;;;;5033622;27;20750;-87
2021/05/21 05:47:33;;;;;;;12.97;11.83;;;11.70;99.90;;;;;;5047424;27;21036;-85
2021/05/21 05:49:59;;;;;;;16.23;14.90;;;11.80;99.90;;;;;;5037576;27;20615;-86
2021/05/21 05:52:26;;;;;;;17.73;16.10;;;11.80;99.90;;;;;;5035227;27;20631;-85
2021/05/21 05:54:53;;;;;;;25.57;23.40;;;12.00;99.90;;;;;;5035295;27;20696;-86
2021/05/21 05:57:19;;;;;;;18.60;16.80;;;12.00;99.90;;;;;;5031294;27;20659;-85
2021/05/21 05:59:46;;;;;;;15.43;14.30;;;12.10;99.90;;;;;;5028038;27;20609;-86
2021/05/21 06:02:12;;;;;;;16.43;15.00;;;12.20;99.90;;;;;;5027157;27;20708;-86
2021/05/21 06:04:39;;;;;;;13.87;12.77;;;12.30;99.90;;;;;;5032383;27;20639;-85
2021/05/21 06:07:05;;;;;;;14.13;12.93;;;12.30;99.90;;;;;;5025408;27;21630;-86
2021/05/21 06:09:32;;;;;;;12.97;11.80;;;12.40;99.90;;;;;;5035787;27;20628;-85
2021/05/21 06:11:59;;;;;;;11.60;10.70;;;12.40;99.90;;;;;;5022633;27;20630;-86
2021/05/21 06:14:25;;;;;;;11.27;10.13;;;12.50;99.90;;;;;;5027839;27;20701;-86
2021/05/21 06:16:51;;;;;;;9.43;8.70;;;12.60;99.90;;;;;;5023278;27;20646;-86
2021/05/21 06:19:18;;;;;;;13.07;9.67;;;12.80;99.90;;;;;;5025231;27;20623;-87
2021/05/21 06:21:44;;;;;;;12.17;7.90;;;12.90;99.90;;;;;;5024716;27;20840;-86
2021/05/21 06:24:12;;;;;;;8.80;5.40;;;13.00;99.90;;;;;;5026233;27;20628;-86
2021/05/21 06:26:41;;;;;;;6.00;4.37;;;13.00;99.90;;;;;;5020826;27;21275;-86
2021/05/21 06:29:08;;;;;;;3.60;3.30;;;13.10;99.90;;;;;;5026758;27;20624;-86
2021/05/21 06:31:34;;;;;;;3.70;2.30;;;13.20;99.90;;;;;;5028909;27;20784;-85
2021/05/21 06:34:00;;;;;;;3.27;2.07;;;13.20;99.90;;;;;;5042605;27;21564;-86
2021/05/21 06:36:27;;;;;;;7.40;2.30;;;13.20;99.90;;;;;;5036745;27;20675;-85
2021/05/21 06:38:53;;;;;;;4.17;1.90;;;13.30;99.90;;;;;;5034439;27;21032;-85
2021/05/21 06:41:20;;;;;;;3.43;2.30;;;13.40;99.90;;;;;;5035408;27;20670;-86
2021/05/21 06:43:46;;;;;;;5.73;2.90;;;13.40;99.90;;;;;;5042522;27;20656;-87
2021/05/21 06:46:14;;;;;;;5.23;2.30;;;13.40;99.90;;;;;;5028548;27;20630;-84
2021/05/21 06:48:40;;;;;;;4.23;2.43;;;13.40;99.90;;;;;;5018967;27;20692;-85
2021/05/21 06:51:07;;;;;;;7.37;2.50;;;13.50;99.90;;;;;;5039325;27;20712;-85
2021/05/21 06:53:34;;;;;;;6.13;2.60;;;13.50;99.90;;;;;;5024128;27;20697;-85
2021/05/21 06:56:01;;;;;;;3.10;2.37;;;13.50;99.90;;;;;;5029247;27;20652;-86
2021/05/21 06:58:29;;;;;;;2.83;1.87;;;13.50;99.90;;;;;;5025804;27;20630;-85
2021/05/21 07:00:57;;;;;;;4.47;2.27;;;13.60;99.90;;;;;;5033455;27;20646;-84
2021/05/21 07:03:28;;;;;;;8.53;2.97;;;13.70;99.90;;;;;;5021925;28;20624;-84
2021/05/21 07:05:54;;;;;;;7.90;1.80;;;13.70;99.90;;;;;;5039473;27;20618;-85
2021/05/21 07:08:20;;;;;;;6.73;2.30;;;13.80;99.90;;;;;;5034154;27;20638;-84
2021/05/21 07:10:47;;;;;;;3.57;2.40;;;14.00;99.90;;;;;;5033363;27;20639;-85
2021/05/21 07:13:15;;;;;;;5.60;2.07;;;14.10;99.90;;;;;;5023995;28;20623;-84
2021/05/21 07:15:43;;;;;;;5.57;2.20;;;14.00;99.90;;;;;;5032260;27;20663;-84
2021/05/21 07:18:10;;;;;;;7.33;2.30;;;14.00;99.90;;;;;;5020851;28;20651;-85
2021/05/21 07:20:41;;;;;;;9.20;3.00;;;14.00;99.90;;;;;;5032159;27;21179;-84
2021/05/21 07:23:07;;;;;;;6.13;2.20;;;14.00;99.90;;;;;;5054411;27;20649;-85
2021/05/21 07:25:33;;;;;;;6.40;2.20;;;14.10;99.90;;;;;;5035964;27;20662;-85
2021/05/21 07:27:59;;;;;;;4.67;2.67;;;14.20;99.90;;;;;;5032103;27;20638;-85
2021/05/21 07:30:26;;;;;;;3.10;2.63;;;14.20;99.90;;;;;;5034418;27;20630;-85
2021/05/21 07:32:52;;;;;;;5.40;2.50;;;14.20;99.90;;;;;;5048153;27;20631;-84
2021/05/21 07:35:18;;;;;;;4.93;3.03;;;14.30;99.90;;;;;;5021400;28;20674;-85
2021/05/21 07:37:46;;;;;;;3.40;2.20;;;14.30;99.90;;;;;;5025502;28;20634;-85
2021/05/21 07:40:13;;;;;;;5.33;2.10;;;14.20;99.90;;;;;;5026035;27;20645;-84
2021/05/21 07:42:40;;;;;;;7.43;2.00;;;14.40;99.90;;;;;;5021864;27;20638;-83
2021/05/21 07:45:08;;;;;;;5.13;2.20;;;14.40;99.90;;;;;;5025210;27;20708;-84
2021/05/21 07:47:34;;;;;;;4.47;1.90;;;14.50;99.90;;;;;;5027456;27;20676;-85
2021/05/21 07:50:02;;;;;;;1.90;1.50;;;14.50;99.90;;;;;;5020817;28;20635;-85
2021/05/21 07:52:29;;;;;;;5.23;2.57;;;14.60;99.90;;;;;;5022017;28;20628;-83
2021/05/21 07:54:56;;;;;;;1.80;1.53;;;14.70;99.90;;;;;;5030187;27;20781;-84
2021/05/21 07:57:24;;;;;;;9.53;2.10;;;14.70;99.90;;;;;;5017747;28;20651;-86
2021/05/21 07:59:51;;;;;;;8.70;2.27;;;14.90;99.90;;;;;;5017353;28;20642;-86
2021/05/21 08:02:17;;;;;;;2.90;2.03;;;14.90;99.90;;;;;;5030441;28;20622;-86
2021/05/21 08:04:43;;;;;;;2.73;1.57;;;15.00;99.90;;;;;;5032151;28;20646;-85
2021/05/21 08:07:10;;;;;;;5.50;1.53;;;15.00;99.90;;;;;;5026496;28;20627;-86
2021/05/21 08:09:39;;;;;;;6.93;2.90;;;15.00;99.90;;;;;;5023467;28;20625;-85
2021/05/21 08:12:09;;;;;;;11.80;5.20;;;15.10;99.90;;;;;;5029020;28;20627;-86
2021/05/21 08:14:36;;;;;;;5.50;2.57;;;15.10;99.90;;;;;;5047878;28;20698;-86
2021/05/21 08:17:03;;;;;;;3.67;1.63;;;15.10;99.90;;;;;;5028978;28;20669;-86
2021/05/21 08:19:29;;;;;;;9.30;4.90;;;15.20;99.90;;;;;;5032285;28;21008;-86
2021/05/21 08:21:56;;;;;;;4.90;1.90;;;15.10;99.90;;;;;;5022349;28;20619;-86
2021/05/21 08:24:22;;;;;;;4.93;2.37;;;15.10;99.90;;;;;;5031184;28;20616;-85
2021/05/21 08:26:49;;;;;;;3.80;1.93;;;15.10;99.90;;;;;;5032725;28;20632;-85
2021/05/21 08:29:33;;;;;;;8.43;6.93;;;15.10;99.90;;;;;;5040690;27;20666;-86
2021/05/21 08:32:02;;;;;;;9.40;5.17;;;15.20;99.90;;;;;;5028847;27;20638;-84
2021/05/21 08:34:29;;;;;;;7.83;3.70;;;15.20;99.90;;;;;;5031061;27;20749;-84
2021/05/21 08:36:55;;;;;;;13.40;10.00;;;15.30;99.90;;;;;;5042614;27;21153;-85
2021/05/21 08:39:23;;;;;;;6.00;2.40;;;15.50;99.90;;;;;;5027316;27;21001;-88
2021/05/21 08:41:52;;;;;;;9.30;2.23;;;15.40;99.90;;;;;;5027163;27;20649;-85
2021/05/21 08:44:21;;;;;;;1.50;1.30;;;15.40;99.90;;;;;;5027699;27;20622;-84
2021/05/21 08:46:48;;;;;;;4.00;1.93;;;15.50;99.90;;;;;;5034913;27;20973;-84
2021/05/21 08:49:16;;;;;;;2.70;2.20;;;15.60;99.90;;;;;;5024948;27;20632;-85
2021/05/21 08:51:43;;;;;;;2.77;1.10;;;15.40;99.90;;;;;;5041580;27;20642;-86
2021/05/21 08:54:11;;;;;;;3.03;1.43;;;15.50;99.90;;;;;;5033439;27;20687;-85
2021/05/21 08:56:38;;;;;;;2.03;1.53;;;15.50;99.90;;;;;;5027212;27;20654;-86
2021/05/21 08:59:04;;;;;;;3.50;1.40;;;15.50;99.90;;;;;;5025585;27;20983;-86
2021/05/21 09:01:32;;;;;;;2.50;1.40;;;15.60;99.90;;;;;;5047469;27;20623;-84
2021/05/21 09:04:00;;;;;;;2.07;1.43;;;15.60;99.90;;;;;;5028956;27;20622;-85
2021/05/21 09:06:26;;;;;;;2.40;1.47;;;15.70;99.90;;;;;;5025862;27;20657;-84
2021/05/21 09:08:54;;;;;;;2.07;1.20;;;15.70;99.90;;;;;;5026554;27;20615;-86
2021/05/21 09:11:29;;;;;;;3.97;1.17;;;15.80;99.90;;;;;;5038519;27;20638;-85
2021/05/21 09:14:02;;;;;;;5.63;1.10;;;15.90;99.80;;;;;;5043335;27;21095;-86
2021/05/21 09:16:31;;;;;;;2.93;1.80;;;15.90;99.90;;;;;;5024382;27;20745;-86
2021/05/21 09:19:07;;;;;;;2.90;0.90;;;16.00;98.50;;;;;;5031642;27;20638;-85
2021/05/21 09:22:03;;;;;;;1.63;1.20;;;16.20;98.20;;;;;;5045768;27;20661;-84
2021/05/21 09:24:33;;;;;;;2.27;1.10;;;16.30;97.80;;;;;;4983595;27;20647;-85
2021/05/21 09:27:00;;;;;;;2.27;1.20;;;16.20;97.60;;;;;;5027278;28;20680;-84
2021/05/21 09:29:43;;;;;;;1.13;0.80;;;16.20;97.20;;;;;;5044861;27;20657;-85
2021/05/21 09:32:19;;;;;;;2.83;1.00;;;16.10;96.80;;;;;;5032664;27;20997;-85
2021/05/21 09:34:59;;;;;;;1.80;0.60;;;16.10;97.40;;;;;;5035740;27;20684;-86
2021/05/21 09:37:28;;;;;;;4.33;0.87;;;16.10;96.80;;;;;;5039274;27;21176;-85
2021/05/21 09:40:08;;;;;;;1.53;0.80;;;16.00;97.40;;;;;;5032874;27;20653;-85
2021/05/21 09:42:53;;;;;;;1.73;1.00;;;16.00;96.70;;;;;;5037618;27;21105;-84
2021/05/21 09:45:27;;;;;;;1.40;0.90;;;16.00;96.70;;;;;;5026528;27;20998;-84
2021/05/21 09:51:33;;;;;;;1.27;0.50;;;16.00;97.60;;;;;;5017461;27;20607;-84
2021/05/21 09:54:00;;;;;;;1.57;0.97;;;15.90;97.70;;;;;;5030388;27;20666;-84
2021/05/21 09:56:26;;;;;;;1.10;0.60;;;16.00;98.30;;;;;;5029786;27;20610;-84
2021/05/21 09:58:59;;;;;;;1.73;0.60;;;16.00;97.80;;;;;;5039817;27;20654;-84
2021/05/21 10:01:27;;;;;;;4.77;1.47;;;15.90;98.30;;;;;;5027504;27;20719;-84
2021/05/21 10:03:55;;;;;;;3.37;0.70;;;15.90;99.00;;;;;;5046721;27;20611;-85
2021/05/21 10:06:24;;;;;;;2.70;1.00;;;15.90;99.10;;;;;;5046298;27;20634;-85
2021/05/21 10:08:55;;;;;;;3.07;0.90;;;15.90;99.00;;;;;;5031912;27;21019;-83
2021/05/21 10:11:22;;;;;;;0.80;0.80;;;15.90;98.60;;;;;;5032720;27;20641;-85
2021/05/21 10:13:48;;;;;;;3.23;1.00;;;15.80;98.40;;;;;;5023666;27;20651;-84
2021/05/21 10:16:17;;;;;;;0.60;0.60;;;15.80;98.90;;;;;;5039921;27;20627;-84
2021/05/21 10:18:44;;;;;;;1.67;0.83;;;15.70;98.50;;;;;;5027005;27;20669;-84
2021/05/21 10:21:11;;;;;;;1.00;0.90;;;15.70;98.80;;;;;;5018332;27;20992;-84
2021/05/21 10:23:41;;;;;;;3.00;0.57;;;15.70;98.40;;;;;;5032118;27;20623;-84
2021/05/21 10:26:13;;;;;;;3.23;0.70;;;15.70;98.30;;;;;;5024326;27;21144;-83
2021/05/21 10:28:42;;;;;;;1.37;0.80;;;15.70;98.60;;;;;;5045212;27;20695;-84
2021/05/21 10:31:10;;;;;;;6.57;5.83;;;15.70;98.70;;;;;;5042014;27;20634;-86
2021/05/21 10:33:39;;;;;;;2.70;1.53;;;15.80;99.00;;;;;;5032407;27;20666;-86
2021/05/21 10:36:30;;;;;;;1.90;1.27;;;15.90;99.10;;;;;;5038980;27;21164;-85
2021/05/21 10:39:07;;;;;;;2.67;1.67;;;15.90;99.10;;;;;;5028365;27;20650;-85
2021/05/21 10:41:34;;;;;;;1.00;0.90;;;15.90;99.40;;;;;;5025987;28;20643;-85
2021/05/21 10:44:01;;;;;;;3.77;0.80;;;16.00;99.60;;;;;;5030610;27;20657;-85
2021/05/21 10:46:28;;;;;;;1.43;1.23;;;16.10;99.60;;;;;;5053542;27;20642;-85
2021/05/21 10:48:57;;;;;;;1.13;0.60;;;16.20;99.50;;;;;;5021616;27;20697;-85
2021/05/21 10:51:26;;;;;;;3.67;1.77;;;16.20;99.50;;;;;;5031286;27;21263;-84
2021/05/21 10:54:25;;;;;;;1.37;0.70;;;16.30;99.90;;;;;;5036216;27;21297;-85
2021/05/21 10:56:55;;;;;;;0.60;0.50;;;16.10;98.80;;;;;;5029952;27;21225;-85
2021/05/21 10:59:39;;;;;;;0.90;0.70;;;16.10;98.80;;;;;;5037211;27;20650;-84
2021/05/21 11:02:05;;;;;;;1.87;0.57;;;16.20;99.00;;;;;;5035758;27;20623;-85
2021/05/21 11:04:31;;;;;;;0.73;0.70;;;16.20;98.80;;;;;;5044240;27;21029;-85
2021/05/21 11:06:59;;;;;;;2.53;0.70;;;16.20;97.80;;;;;;5033838;27;21510;-84
2021/05/21 11:09:29;;;;;;;1.90;0.60;;;16.20;97.50;;;;;;5041927;27;20651;-85
2021/05/21 11:12:04;;;;;;;1.00;0.77;;;16.10;98.20;;;;;;5047500;27;20631;-85
2021/05/21 11:14:36;;;;;;;1.30;0.77;;;16.20;97.70;;;;;;5030953;27;21019;-84
2021/05/21 11:17:23;;;;;;;1.07;0.70;;;16.30;98.50;;;;;;5029631;27;20641;-85
2021/05/21 11:19:52;;;;;;;4.40;0.67;;;16.20;98.10;;;;;;5022511;27;20739;-85
2021/05/21 11:22:23;;;;;;;1.27;0.60;;;16.30;98.40;;;;;;5047550;27;20634;-85
2021/05/21 11:24:52;;;;;;;2.07;0.60;;;16.30;97.90;;;;;;5041414;27;20967;-85
2021/05/21 11:27:20;;;;;;;1.73;0.80;;;16.30;98.60;;;;;;5022422;27;20977;-84
2021/05/21 11:29:48;;;;;;;0.60;0.40;;;16.40;98.10;;;;;;5042856;27;20647;-85
2021/05/21 11:32:15;;;;;;;0.80;0.70;;;16.40;98.30;;;;;;5024153;27;20952;-85
2021/05/21 11:34:42;;;;;;;0.90;0.60;;;16.60;98.40;;;;;;5047302;27;20672;-85
2021/05/21 11:37:08;;;;;;;1.77;0.63;;;16.70;98.40;;;;;;5026407;27;20706;-85
2021/05/21 11:39:37;;;;;;;2.23;0.70;;;16.90;97.40;;;;;;5023763;27;20794;-85
2021/05/21 11:42:08;;;;;;;2.30;0.70;;;16.90;97.30;;;;;;5034848;27;20698;-84
2021/05/21 11:44:35;;;;;;;0.80;0.60;;;17.10;97.10;;;;;;5027741;27;20642;-84
2021/05/21 11:47:04;;;;;;;1.33;0.77;;;17.10;96.80;;;;;;5037682;27;21253;-86
2021/05/21 11:49:30;;;;;;;1.10;0.80;;;17.40;97.80;;;;;;5034406;27;20659;-85
2021/05/21 11:51:59;;;;;;;1.20;0.80;;;17.60;97.40;;;;;;5043466;27;20614;-85
2021/05/21 11:54:27;;;;;;;1.33;0.60;;;17.50;97.40;;;;;;5023815;27;20663;-84
2021/05/21 11:56:55;;;;;;;4.30;0.90;;;17.30;97.10;;;;;;5044177;27;20618;-84
2021/05/21 11:59:22;;;;;;;1.20;0.93;;;17.40;96.80;;;;;;5064347;27;20655;-85
2021/05/21 12:01:51;;;;;;;2.10;0.77;;;16.90;97.30;;;;;;5059411;28;20615;-84
2021/05/21 12:04:19;;;;;;;0.80;0.80;;;16.90;97.50;;;;;;5044316;27;20718;-85
2021/05/21 12:06:47;;;;;;;5.47;0.90;;;16.90;97.40;;;;;;5036226;28;20633;-85
2021/05/21 12:09:15;;;;;;;0.90;0.80;;;16.70;97.20;;;;;;5043218;27;21278;-83
2021/05/21 12:11:44;;;;;;;0.60;0.60;;;16.60;97.60;;;;;;5021432;28;20632;-84
2021/05/21 12:14:12;;;;;;;1.10;0.60;;;16.60;97.50;;;;;;5041002;28;20755;-84
2021/05/21 12:16:41;;;;;;;1.53;0.90;;;16.70;96.70;;;;;;5027981;28;20624;-86
2021/05/21 12:19:09;;;;;;;1.53;0.70;;;16.80;97.10;;;;;;5032325;28;21136;-84
2021/05/21 12:21:37;;;;;;;1.00;0.50;;;16.60;96.80;;;;;;5031904;28;21209;-84
2021/05/21 12:24:04;;;;;;;1.70;0.80;;;16.70;96.20;;;;;;5026557;28;20611;-84
2021/05/21 12:26:33;;;;;;;2.20;0.60;;;16.80;96.20;;;;;;5029485;27;20634;-85
2021/05/21 12:29:00;;;;;;;0.90;0.77;;;16.90;96.30;;;;;;5025220;28;20650;-85
2021/05/21 12:31:28;;;;;;;2.97;0.80;;;16.70;96.60;;;;;;5041960;28;20631;-84
2021/05/21 12:33:55;;;;;;;1.20;0.90;;;16.80;95.10;;;;;;5025223;28;20654;-85
2021/05/21 12:36:26;;;;;;;1.60;1.17;;;16.80;95.20;;;;;;5024598;28;20635;-85
2021/05/21 12:38:54;;;;;;;1.73;0.70;;;16.70;95.70;;;;;;5026147;28;20693;-84
2021/05/21 12:41:25;;;;;;;0.77;0.67;;;16.60;95.60;;;;;;5036475;28;20669;-83
2021/05/21 12:43:51;;;;;;;2.50;0.70;;;16.50;95.20;;;;;;5022343;28;20616;-85
2021/05/21 12:46:17;;;;;;;1.63;0.83;;;16.70;95.90;;;;;;5027789;28;21228;-84
2021/05/21 12:48:45;;;;;;;1.10;0.97;;;16.80;95.70;;;;;;5019046;28;20655;-85
2021/05/21 12:51:26;;;;;;;0.73;0.67;;;16.60;95.20;;;;;;5048332;28;20617;-84
2021/05/21 12:53:54;;;;;;;0.87;0.70;;;16.40;95.30;;;;;;5024084;28;20662;-85